Time;durP1;ratioP1;P1;durP2;ratioP2;P2;SDS_P1;SDS_P2;PMS_P1;PMS_P2;Temp;Humidity;BMP_temperature;BMP_pressure;BME280_temperature;BME280_humidity;BME280_pressure;Samples;Min_cycle;Max_cycle;Signal;HPM_P1;HPM_P2
2022/06/11 00:00:43;;;;;;;13.18;6.13;;;;;;;21.33;55.34;102029.13;4899450;28;123931;-65
2022/06/11 00:03:11;;;;;;;9.88;5.80;;;;;;;21.31;55.58;102025.66;4906777;28;124496;-65
2022/06/11 00:05:39;;;;;;;10.85;5.57;;;;;;;21.30;55.59;102023.94;4905212;28;114335;-66
2022/06/11 00:08:06;;;;;;;10.48;5.35;;;;;;;21.29;55.65;102024.91;4896567;28;113921;-65
2022/06/11 00:10:33;;;;;;;9.15;5.50;;;;;;;21.28;55.68;102025.88;4900789;28;125103;-65
2022/06/11 00:13:01;;;;;;;9.50;5.20;;;;;;;21.28;55.69;102025.88;4898140;28;123617;-65
2022/06/11 00:15:29;;;;;;;8.05;5.25;;;;;;;21.26;55.71;102027.81;4901023;28;113995;-65
2022/06/11 00:17:57;;;;;;;10.02;5.60;;;;;;;21.22;55.49;102027.19;4895177;28;114769;-65
2022/06/11 00:20:29;;;;;;;9.27;4.88;;;;;;;21.18;55.62;102029.22;4903222;28;125313;-65
2022/06/11 00:22:57;;;;;;;10.55;4.70;;;;;;;21.13;55.55;102023.28;4905931;28;123069;-65
2022/06/11 00:25:24;;;;;;;8.63;5.10;;;;;;;21.08;55.52;102025.47;4898266;28;114361;-65
2022/06/11 00:27:52;;;;;;;9.35;5.20;;;;;;;21.03;55.53;102027.63;4899588;28;114001;-65
2022/06/11 00:30:19;;;;;;;9.95;5.20;;;;;;;20.99;55.63;102020.75;4925090;28;123070;-66
2022/06/11 00:32:47;;;;;;;7.35;4.85;;;;;;;20.95;55.52;102030.00;4908077;28;124083;-65
2022/06/11 00:35:16;;;;;;;10.02;5.47;;;;;;;20.91;55.76;102023.97;4903127;28;114761;-66
2022/06/11 00:37:44;;;;;;;9.05;5.20;;;;;;;20.86;55.62;102025.25;4902190;28;114229;-65
2022/06/11 00:40:16;;;;;;;10.10;4.97;;;;;;;20.82;56.02;102029.16;4899544;28;124196;-64
2022/06/11 00:42:44;;;;;;;8.65;5.07;;;;;;;20.77;55.90;102022.22;4911214;28;123359;-68
2022/06/11 00:45:29;;;;;;;11.25;4.75;;;;;;;20.75;56.05;102032.25;4898795;28;115246;-68
2022/06/11 00:48:03;;;;;;;;;;;;;;;20.68;55.45;102022.88;4904850;28;115466;-68
2022/06/11 00:50:37;;;;;;;11.15;4.85;;;;;;;20.67;55.71;102025.69;4902196;28;124294;-68
2022/06/11 00:53:13;;;;;;;12.05;5.15;;;;;;;20.63;55.96;102021.47;4900561;28;125463;-68
2022/06/11 00:55:42;;;;;;;8.40;5.45;;;;;;;20.60;55.87;102019.84;4907096;28;114813;-67
2022/06/11 00:58:15;;;;;;;8.98;5.30;;;;;;;20.54;56.11;102025.63;4900338;28;113798;-67
2022/06/11 01:00:47;;;;;;;12.52;5.75;;;;;;;20.50;56.13;102019.59;4904236;28;123658;-66
2022/06/11 01:03:18;;;;;;;9.70;4.95;;;;;;;20.47;56.19;102021.63;4905723;28;123583;-66
2022/06/11 01:05:50;;;;;;;10.40;5.10;;;;;;;20.42;56.35;102014.72;4900612;28;114579;-67
2022/06/11 01:08:30;;;;;;;8.75;5.03;;;;;;;20.38;56.65;102015.91;4903607;28;114804;-67
2022/06/11 01:10:57;;;;;;;10.00;4.95;;;;;;;20.37;56.63;102014.16;4901713;28;123678;-67
2022/06/11 01:13:34;;;;;;;7.88;5.05;;;;;;;20.32;56.54;102010.91;4897342;28;124066;-67
2022/06/11 01:16:14;;;;;;;6.57;4.68;;;;;;;20.29;56.73;102011.16;4898697;28;114293;-67
2022/06/11 01:19:00;;;;;;;10.32;4.70;;;;;;;20.27;56.60;102013.09;4897269;28;114021;-67
2022/06/11 01:21:37;;;;;;;5.70;4.45;;;;;;;20.21;56.76;102013.47;4908606;28;122999;-66
2022/06/11 01:24:25;;;;;;;10.05;4.70;;;;;;;20.17;56.78;102011.97;4904321;28;123852;-66
2022/06/11 01:27:11;;;;;;;6.10;4.40;;;;;;;20.16;56.74;102012.94;4899595;28;115128;-67
2022/06/11 01:30:02;;;;;;;11.65;4.40;;;;;;;20.12;56.85;102009.59;4900942;28;113667;-67
2022/06/11 01:33:07;;;;;;;8.73;4.20;;;;;;;20.07;56.81;102010.88;4906039;28;124209;-68
2022/06/11 01:35:45;;;;;;;5.65;4.07;;;;;;;20.05;56.78;102002.03;4877361;28;124419;-67
2022/06/11 01:38:31;;;;;;;5.80;4.00;;;;;;;20.03;56.86;102000.31;4900429;28;115449;-67
2022/06/11 01:41:35;;;;;;;7.30;3.75;;;;;;;20.00;56.85;102005.91;4898418;28;114781;-68
2022/06/11 01:44:07;;;;;;;7.43;4.10;;;;;;;19.99;56.75;101998.78;4907725;28;127863;-68
2022/06/11 01:46:40;;;;;;;6.00;4.00;;;;;;;19.98;56.94;102002.41;4898605;28;125192;-68
2022/06/11 01:49:27;;;;;;;6.50;3.85;;;;;;;19.94;56.98;102011.66;4922888;28;113411;-68
2022/06/11 01:52:12;;;;;;;7.05;3.85;;;;;;;19.93;57.15;102007.25;4905544;28;113750;-68
2022/06/11 01:55:11;;;;;;;4.85;4.15;;;;;;;19.88;56.89;102006.69;4901329;28;124185;-68
2022/06/11 01:57:53;;;;;;;5.55;3.97;;;;;;;19.85;57.11;102012.25;4898280;28;124172;-68
2022/06/11 02:00:24;;;;;;;6.00;3.90;;;;;;;19.83;57.00;102014.19;4898963;28;114356;-64
2022/06/11 02:03:14;;;;;;;5.90;3.95;;;;;;;19.80;57.00;102009.91;4908554;28;113905;-65
2022/06/11 02:05:47;;;;;;;8.70;4.30;;;;;;;19.77;57.04;102009.22;4899369;28;124233;-65
2022/06/11 02:08:33;;;;;;;7.70;4.03;;;;;;;19.73;57.17;102005.03;4902176;28;123953;-64
2022/06/11 02:11:00;;;;;;;;;;;;;;;19.68;56.81;102013.34;4903206;28;114452;-65
2022/06/11 02:13:35;;;;;;;5.85;3.75;;;;;;;19.67;56.85;102008.09;4895791;28;113624;-64
2022/06/11 02:16:10;;;;;;;7.03;4.32;;;;;;;19.63;57.38;102008.28;4904924;28;124036;-64
2022/06/11 02:18:38;;;;;;;;;;;;;;;19.58;56.78;102010.38;4897389;28;123969;-65
2022/06/11 02:21:13;;;;;;;6.88;3.90;;;;;;;19.57;56.96;102000.63;4906416;28;114591;-64
2022/06/11 02:23:47;;;;;;;;;;;;;;;19.52;56.67;102005.41;4910258;28;113077;-64
2022/06/11 02:26:22;;;;;;;8.57;4.22;;;;;;;19.51;57.17;102014.41;4911922;28;123873;-65
2022/06/11 02:28:51;;;;;;;7.50;3.65;;;;;;;19.48;57.04;102003.88;4901046;28;124267;-64
2022/06/11 02:31:23;;;;;;;7.07;3.55;;;;;;;19.47;57.50;102009.34;4906049;28;115204;-64
2022/06/11 02:33:51;;;;;;;4.88;3.88;;;;;;;19.45;57.61;102009.44;4896906;28;114623;-64
2022/06/11 02:36:24;;;;;;;5.60;4.30;;;;;;;19.43;57.70;102000.63;4905078;28;124836;-64
2022/06/11 02:38:52;;;;;;;6.45;3.95;;;;;;;19.42;57.51;102009.63;4902751;28;123956;-64
2022/06/11 02:41:26;;;;;;;7.13;4.03;;;;;;;19.39;57.84;102009.84;4905495;28;114102;-64
2022/06/11 02:43:54;;;;;;;5.50;3.70;;;;;;;19.36;57.81;102005.50;4901007;28;113916;-64
2022/06/11 02:49:11;;;;;;;5.85;3.67;;;;;;;19.34;57.87;102017.34;4905658;28;123734;-64
2022/06/11 02:51:38;;;;;;;8.27;4.00;;;;;;;19.31;58.03;102017.50;4896138;28;114210;-64
2022/06/11 02:54:05;;;;;;;9.73;4.32;;;;;;;19.29;58.11;102024.81;4903574;28;114318;-64
2022/06/11 02:56:33;;;;;;;8.65;4.18;;;;;;;19.26;58.31;102021.34;4905884;28;123819;-64
2022/06/11 02:59:00;;;;;;;6.80;4.30;;;;;;;19.24;58.23;102023.28;4899331;28;123672;-64
2022/06/11 03:01:27;;;;;;;8.18;4.30;;;;;;;19.22;58.45;102025.19;4899946;28;114092;-64
2022/06/11 03:03:54;;;;;;;6.32;4.10;;;;;;;19.22;58.36;102027.88;4904272;28;114395;-64
2022/06/11 03:06:24;;;;;;;9.77;4.18;;;;;;;19.20;58.52;102027.13;4906262;28;125094;-64
2022/06/11 03:08:51;;;;;;;5.07;3.80;;;;;;;19.20;58.36;102029.81;4902637;28;123812;-64
2022/06/11 03:11:18;;;;;;;7.50;4.38;;;;;;;19.19;58.36;102041.53;4907176;28;114135;-64
2022/06/11 03:13:45;;;;;;;6.97;4.60;;;;;;;19.17;58.39;102038.06;4898873;28;113985;-64
2022/06/11 03:16:13;;;;;;;8.80;4.13;;;;;;;19.16;58.65;102044.41;4898823;28;125202;-65
2022/06/11 03:18:41;;;;;;;6.95;4.03;;;;;;;19.15;58.63;102045.34;4903363;28;123646;-65
2022/06/11 03:21:09;;;;;;;8.45;4.38;;;;;;;19.15;58.58;102045.34;4909890;28;115247;-66
2022/06/11 03:23:36;;;;;;;7.15;3.90;;;;;;;19.15;58.58;102047.16;4901053;28;115272;-65
2022/06/11 03:26:06;;;;;;;6.38;4.20;;;;;;;19.13;58.64;102052.63;4895428;28;123903;-65
2022/06/11 03:28:34;;;;;;;6.70;4.00;;;;;;;19.12;58.88;102050.03;4900095;28;123706;-65
2022/06/11 03:31:06;;;;;;;4.53;3.60;;;;;;;19.11;58.79;102065.28;4905410;28;114373;-64
2022/06/11 03:33:38;;;;;;;8.15;3.90;;;;;;;19.10;58.85;102062.69;4895028;28;114142;-66
2022/06/11 03:36:09;;;;;;;9.43;4.40;;;;;;;19.09;58.86;102061.84;4900437;28;123881;-65
2022/06/11 03:38:39;;;;;;;6.55;3.95;;;;;;;19.09;58.87;102056.47;4899807;28;124067;-65
2022/06/11 03:41:06;;;;;;;7.43;4.20;;;;;;;19.06;58.90;102068.28;4896001;28;113969;-65
2022/06/11 03:43:33;;;;;;;6.05;3.70;;;;;;;19.05;59.04;102066.53;4906899;28;113553;-65
2022/06/11 03:46:01;;;;;;;6.10;3.90;;;;;;;19.06;59.07;102067.38;4908875;28;123289;-65
2022/06/11 03:48:29;;;;;;;8.82;3.90;;;;;;;19.06;58.85;102072.75;4900157;28;124600;-65
2022/06/11 03:50:59;;;;;;;6.95;3.83;;;;;;;19.06;59.20;102078.13;4901228;28;114366;-64
2022/06/11 03:53:29;;;;;;;6.47;3.63;;;;;;;19.07;59.25;102082.56;4902249;28;114048;-65
2022/06/11 03:55:57;;;;;;;6.40;3.65;;;;;;;19.09;59.12;102083.31;4899361;28;124731;-64
2022/06/11 03:58:25;;;;;;;5.28;4.00;;;;;;;19.10;59.29;102079.69;4903536;28;124515;-65
2022/06/11 04:03:40;;;;;;;5.97;3.45;;;;;;;19.15;59.27;102088.31;4902955;28;113816;-65
2022/06/11 04:06:08;;;;;;;5.93;3.53;;;;;;;19.18;59.14;102082.75;4909310;28;124075;-64
2022/06/11 04:08:36;;;;;;;5.97;3.60;;;;;;;19.22;59.38;102089.66;4907453;28;124299;-64
2022/06/11 04:11:04;;;;;;;9.40;3.92;;;;;;;19.27;59.33;102092.09;4906004;28;115948;-65
2022/06/11 04:13:33;;;;;;;5.28;2.97;;;;;;;19.32;59.52;102094.47;4907778;28;115098;-64
2022/06/11 04:16:01;;;;;;;4.13;3.20;;;;;;;19.37;59.47;102092.38;4901681;28;124482;-65
2022/06/11 04:18:41;;;;;;;5.88;3.25;;;;;;;19.42;59.51;102098.31;4923283;28;124139;-65
2022/06/11 04:21:11;;;;;;;4.97;3.33;;;;;;;19.48;59.40;102095.25;4903912;28;114095;-65
2022/06/11 04:23:40;;;;;;;5.60;2.90;;;;;;;19.53;59.18;102098.50;4903556;28;113829;-68
2022/06/11 04:26:12;;;;;;;6.22;2.78;;;;;;;19.57;59.04;102100.06;4899646;28;124404;-68
2022/06/11 04:28:40;;;;;;;7.60;2.92;;;;;;;19.63;58.96;102105.03;4898229;28;124260;-68
2022/06/11 04:31:09;;;;;;;6.97;2.60;;;;;;;19.67;58.98;102104.84;4903222;28;114331;-68
2022/06/11 04:33:36;;;;;;;6.28;2.85;;;;;;;19.72;58.54;102108.09;4915341;28;113112;-68
2022/06/11 04:36:04;;;;;;;5.88;2.72;;;;;;;19.75;58.58;102113.31;4903806;28;124237;-68
2022/06/11 04:38:32;;;;;;;6.85;2.85;;;;;;;19.79;58.55;102114.84;4901609;28;125503;-68
2022/06/11 04:41:00;;;;;;;5.28;2.40;;;;;;;19.82;58.32;102117.34;4902732;28;114960;-68
2022/06/11 04:43:27;;;;;;;5.72;2.88;;;;;;;19.85;58.05;102114.44;4902024;28;113991;-68
2022/06/11 04:45:54;;;;;;;8.43;2.72;;;;;;;19.89;58.26;102116.00;4901862;28;123796;-69
2022/06/11 04:48:21;;;;;;;5.13;2.30;;;;;;;19.93;58.09;102116.63;4895692;28;124005;-65
2022/06/11 04:50:48;;;;;;;5.72;2.75;;;;;;;19.97;57.83;102118.19;4900236;28;114624;-65
2022/06/11 04:53:16;;;;;;;4.70;2.47;;;;;;;19.99;57.72;102121.63;4907201;28;113681;-64
2022/06/11 04:55:43;;;;;;;5.22;2.40;;;;;;;19.99;57.53;102122.50;4909845;28;124096;-64
2022/06/11 04:58:10;;;;;;;6.32;2.70;;;;;;;20.03;57.37;102113.25;4905862;28;123640;-64
2022/06/11 05:00:37;;;;;;;5.40;2.40;;;;;;;20.08;57.40;102120.16;4908721;28;114885;-64
2022/06/11 05:03:05;;;;;;;7.40;2.75;;;;;;;20.12;57.36;102121.72;4902304;28;115326;-64
2022/06/11 05:05:33;;;;;;;6.82;2.97;;;;;;;20.15;57.15;102116.13;4902064;28;124108;-64
2022/06/11 05:08:01;;;;;;;7.60;2.20;;;;;;;20.18;57.08;102116.78;4904206;28;125239;-65
2022/06/11 05:10:31;;;;;;;7.68;2.63;;;;;;;20.22;57.03;102122.81;4904364;28;114581;-64
2022/06/11 05:13:05;;;;;;;6.43;2.35;;;;;;;20.26;56.89;102118.97;4903524;28;113983;-65
2022/06/11 05:15:37;;;;;;;8.35;3.10;;;;;;;20.28;56.39;102117.03;4908725;28;123922;-65
2022/06/11 05:18:04;;;;;;;4.93;2.15;;;;;;;20.31;55.98;102122.22;4900332;28;124551;-64
2022/06/11 05:20:31;;;;;;;5.30;2.10;;;;;;;20.33;55.91;102125.66;4892863;28;113656;-65
2022/06/11 05:22:59;;;;;;;8.60;2.17;;;;;;;20.33;55.67;102125.66;4905419;28;113648;-64
2022/06/11 05:25:27;;;;;;;6.38;2.05;;;;;;;20.36;55.61;102120.09;4907088;28;124361;-64
2022/06/11 05:27:54;;;;;;;5.00;2.10;;;;;;;20.38;55.43;102128.94;4900610;28;124765;-66
2022/06/11 05:30:25;;;;;;;6.20;2.50;;;;;;;20.39;55.05;102130.63;4908150;28;114661;-65
2022/06/11 05:32:53;;;;;;;5.90;2.03;;;;;;;20.40;54.93;102129.69;4905664;28;113890;-65
2022/06/11 05:35:25;;;;;;;7.40;2.00;;;;;;;20.42;54.75;102134.97;4908490;28;123818;-65
2022/06/11 05:37:55;;;;;;;4.78;2.10;;;;;;;20.46;54.84;102135.63;4904868;28;123735;-65
2022/06/11 05:40:25;;;;;;;5.43;2.08;;;;;;;20.48;54.76;102133.72;4905922;28;114270;-65
2022/06/11 05:42:52;;;;;;;6.47;2.35;;;;;;;20.51;54.72;102138.88;4924230;28;113762;-65
2022/06/11 05:45:24;;;;;;;6.40;2.35;;;;;;;20.56;54.49;102139.44;4901055;28;124307;-65
2022/06/11 05:47:54;;;;;;;9.77;2.33;;;;;;;20.61;54.26;102145.41;4899308;28;123886;-65
2022/06/11 05:50:25;;;;;;;6.55;2.05;;;;;;;20.65;54.06;102135.31;4904610;28;115119;-65
2022/06/11 05:52:53;;;;;;;7.95;2.30;;;;;;;20.68;53.97;102127.88;4901686;28;115119;-65
2022/06/11 05:55:23;;;;;;;6.80;2.17;;;;;;;20.70;53.77;102128.63;4903038;28;125454;-65
2022/06/11 05:57:54;;;;;;;5.78;2.22;;;;;;;20.74;53.86;102140.06;4911603;28;123337;-65
2022/06/11 06:00:23;;;;;;;4.72;1.67;;;;;;;20.76;53.56;102133.59;4906100;28;114027;-66
2022/06/11 06:02:50;;;;;;;8.18;2.35;;;;;;;20.78;53.42;102137.06;4903837;28;114304;-65
2022/06/11 06:05:23;;;;;;;7.85;2.08;;;;;;;20.77;53.10;102135.31;4905476;28;124654;-65
2022/06/11 06:07:52;;;;;;;8.82;2.25;;;;;;;20.79;53.04;102138.78;4906177;28;124362;-65
2022/06/11 06:10:20;;;;;;;9.27;2.15;;;;;;;20.85;53.09;102139.31;4902941;28;114245;-65
2022/06/11 06:12:47;;;;;;;5.53;1.80;;;;;;;20.91;52.98;102141.63;4906131;28;113693;-65
2022/06/11 06:15:19;;;;;;;5.60;1.83;;;;;;;20.99;52.64;102141.94;4904505;28;124648;-65
2022/06/11 06:17:48;;;;;;;10.60;2.40;;;;;;;21.05;52.73;102144.22;4899809;28;123823;-65
2022/06/11 06:20:17;;;;;;;8.07;1.80;;;;;;;21.11;52.84;102143.78;4905338;28;113882;-66
2022/06/11 06:22:45;;;;;;;8.98;2.03;;;;;;;21.17;52.66;102148.75;4900098;28;114540;-65
2022/06/11 06:25:16;;;;;;;6.93;2.10;;;;;;;21.29;52.44;102156.97;4903279;28;123830;-65
2022/06/11 06:27:43;;;;;;;7.40;2.25;;;;;;;21.40;52.59;102154.38;4905084;28;123619;-65
2022/06/11 06:30:17;;;;;;;8.93;1.90;;;;;;;21.49;52.32;102156.47;4906305;28;114593;-64
2022/06/11 06:32:44;;;;;;;11.85;2.13;;;;;;;21.56;51.98;102157.75;4900235;28;114011;-65
2022/06/11 06:35:11;;;;;;;9.65;2.72;;;;;;;21.63;51.64;102143.84;4913317;28;124916;-64
2022/06/11 06:37:38;;;;;;;9.30;2.17;;;;;;;21.68;51.57;102137.16;4907171;28;124700;-64
2022/06/11 06:40:07;;;;;;;13.57;2.53;;;;;;;21.73;51.17;102153.84;4898218;28;115159;-64
2022/06/11 06:42:35;;;;;;;8.73;2.20;;;;;;;21.77;51.00;102149.09;4904403;28;115205;-65
2022/06/11 06:45:02;;;;;;;9.55;2.38;;;;;;;21.82;51.34;102149.63;4898783;28;125164;-65
2022/06/11 06:47:30;;;;;;;13.57;2.08;;;;;;;21.92;51.16;102155.22;4906078;28;123994;-66
2022/06/11 06:49:57;;;;;;;12.43;2.00;;;;;;;22.02;51.04;102167.09;4907195;28;114561;-66
2022/06/11 06:52:24;;;;;;;10.98;2.28;;;;;;;22.08;50.69;102160.38;4908937;28;114323;-65
2022/06/11 06:54:51;;;;;;;7.53;2.13;;;;;;;22.13;50.59;102164.47;4906460;28;124161;-66
2022/06/11 06:57:19;;;;;;;9.50;2.53;;;;;;;22.20;50.42;102170.25;4902746;28;124346;-66
2022/06/11 06:59:46;;;;;;;9.50;2.30;;;;;;;22.25;50.31;102162.72;4907960;28;115146;-63
2022/06/11 07:02:17;;;;;;;8.45;2.38;;;;;;;22.32;50.34;102158.59;4901647;28;113663;-63
2022/06/11 07:04:44;;;;;;;9.20;2.10;;;;;;;22.40;50.20;102160.72;4901382;28;124428;-63
2022/06/11 07:07:16;;;;;;;8.95;2.28;;;;;;;22.45;49.82;102168.47;4903731;28;123810;-63
2022/06/11 07:09:43;;;;;;;10.43;2.22;;;;;;;22.49;49.87;102169.97;4900524;28;114588;-64
2022/06/11 07:12:12;;;;;;;8.65;2.70;;;;;;;22.51;49.65;102168.03;4899245;28;114344;-63
2022/06/11 07:14:42;;;;;;;9.88;2.17;;;;;;;22.52;49.73;102164.34;4892858;28;123624;-64
2022/06/11 07:17:11;;;;;;;10.88;2.53;;;;;;;22.52;49.73;102158.94;4899936;28;123753;-66
2022/06/11 07:20:07;;;;;;;12.38;2.92;;;;;;;22.54;49.66;102162.41;4900590;28;114070;-66
2022/06/11 07:22:40;;;;;;;9.32;2.13;;;;;;;22.62;49.78;102162.69;4902864;28;113584;-66
2022/06/11 07:25:09;;;;;;;9.23;2.30;;;;;;;22.71;50.08;102164.69;4892837;28;125196;-66
2022/06/11 07:27:41;;;;;;;11.40;2.42;;;;;;;22.81;50.03;102161.28;4898418;28;124575;-66
2022/06/11 07:30:19;;;;;;;9.25;2.28;;;;;;;22.91;50.04;102170.44;4905221;28;115038;-66
2022/06/11 07:32:49;;;;;;;11.48;2.40;;;;;;;23.02;49.97;102151.53;4897781;28;114617;-66
2022/06/11 07:35:17;;;;;;;9.40;2.47;;;;;;;23.17;50.15;102154.06;4902496;28;124777;-66
2022/06/11 07:37:48;;;;;;;9.77;2.42;;;;;;;23.35;49.78;102158.03;4893067;28;125270;-66
2022/06/11 07:40:18;;;;;;;9.32;2.35;;;;;;;23.49;49.50;102149.69;4898003;28;114039;-66
2022/06/11 07:42:45;;;;;;;10.35;2.65;;;;;;;23.65;49.34;102151.19;4892236;28;114062;-66
2022/06/11 07:45:13;;;;;;;8.75;2.60;;;;;;;23.79;49.51;102150.97;4897655;28;125488;-66
2022/06/11 07:47:53;;;;;;;8.43;2.42;;;;;;;23.96;48.99;102151.44;4899663;28;123947;-66
2022/06/11 07:50:28;;;;;;;16.20;2.92;;;;;;;24.07;48.45;102144.19;4899107;28;114187;-66
2022/06/11 07:52:56;;;;;;;12.48;2.80;;;;;;;24.14;48.19;102149.94;4893664;28;114617;-66
2022/06/11 07:55:24;;;;;;;10.30;2.35;;;;;;;24.20;47.97;102154.84;4902589;28;124029;-66
2022/06/11 07:57:52;;;;;;;14.00;2.75;;;;;;;24.23;47.21;102165.44;4900042;28;124025;-64
2022/06/11 08:00:26;;;;;;;12.48;2.38;;;;;;;24.21;46.83;102161.97;4902407;28;114079;-64
2022/06/11 08:02:53;;;;;;;7.95;2.60;;;;;;;24.16;46.90;102164.19;4899177;28;113845;-64
2022/06/11 08:05:21;;;;;;;10.13;2.22;;;;;;;24.12;46.84;102162.75;4901070;28;124986;-64
2022/06/11 08:07:51;;;;;;;9.82;2.75;;;;;;;24.08;46.57;102166.69;4894729;28;125287;-64
2022/06/11 08:10:22;;;;;;;12.68;2.63;;;;;;;24.06;46.48;102168.66;4909497;28;113234;-64
2022/06/11 08:12:49;;;;;;;10.75;2.42;;;;;;;24.06;46.88;102163.25;4901712;28;113510;-64
2022/06/11 08:15:16;;;;;;;10.73;2.50;;;;;;;24.09;46.92;102173.81;4904475;28;124596;-64
2022/06/11 08:17:44;;;;;;;8.75;2.47;;;;;;;24.13;46.90;102175.31;4894992;28;123890;-64
2022/06/11 08:20:19;;;;;;;8.10;2.50;;;;;;;24.24;47.28;102178.00;4895012;28;115085;-63
2022/06/11 08:22:46;;;;;;;9.63;2.38;;;;;;;24.38;47.39;102184.13;4905746;28;115305;-64
2022/06/11 08:25:13;;;;;;;13.75;2.78;;;;;;;24.55;47.35;102174.63;4899282;28;124129;-64
2022/06/11 08:27:41;;;;;;;8.75;2.60;;;;;;;24.71;47.15;102179.59;4906699;28;124062;-64
2022/06/11 08:30:08;;;;;;;12.20;2.50;;;;;;;24.85;46.94;102176.59;4911530;28;114195;-63
2022/06/11 08:32:35;;;;;;;11.13;2.92;;;;;;;24.96;46.52;102173.84;4910171;28;113239;-64
2022/06/11 08:35:03;;;;;;;10.73;2.50;;;;;;;25.03;46.37;102185.88;4911217;28;124423;-64
2022/06/11 08:37:30;;;;;;;10.40;2.50;;;;;;;25.12;46.34;102188.78;4909406;28;124594;-64
2022/06/11 08:39:57;;;;;;;10.00;2.50;;;;;;;25.24;46.45;102193.16;4911239;28;114540;-64
2022/06/11 08:42:35;;;;;;;9.45;2.30;;;;;;;25.30;45.83;102186.34;4911161;28;114012;-64
2022/06/11 08:45:22;;;;;;;9.63;2.13;;;;;;;25.35;45.58;102190.38;4898792;28;124399;-64
2022/06/11 08:47:55;;;;;;;10.13;2.35;;;;;;;25.42;45.69;102191.56;4907073;28;125314;-64
2022/06/11 08:50:31;;;;;;;14.35;2.97;;;;;;;25.51;45.00;102199.94;4902868;28;114309;-66
2022/06/11 08:53:00;;;;;;;12.80;2.50;;;;;;;25.55;44.46;102201.38;4912102;28;114632;-66
2022/06/11 08:55:35;;;;;;;11.82;1.92;;;;;;;25.54;44.16;102199.63;4900038;28;124907;-66
2022/06/11 08:58:34;;;;;;;9.75;2.08;;;;;;;25.53;43.94;102197.94;4907512;28;123188;-64
2022/06/11 09:01:37;;;;;;;9.65;2.17;;;;;;;25.52;44.05;102201.63;4899335;28;114066;-64
2022/06/11 09:04:36;;;;;;;7.03;1.90;;;;;;;25.53;42.85;102198.78;4906441;28;114200;-64
2022/06/11 09:07:24;;;;;;;9.60;1.80;;;;;;;25.47;41.87;102195.72;4910582;28;124728;-64
2022/06/11 09:10:04;;;;;;;6.20;1.48;;;;;;;25.42;42.18;102193.44;4905236;28;123701;-64
2022/06/11 09:13:09;;;;;;;6.95;1.75;;;;;;;25.36;42.06;102186.69;4912482;28;115388;-64
2022/06/11 09:15:46;;;;;;;12.75;2.05;;;;;;;25.39;42.09;102180.13;4902583;28;114849;-64
2022/06/11 09:18:37;;;;;;;9.23;2.60;;;;;;;25.49;42.85;102185.63;4900939;28;124158;-64
2022/06/11 09:21:28;;;;;;;12.07;2.45;;;;;;;25.66;43.36;102181.44;4912684;28;122929;-64
2022/06/11 09:24:21;;;;;;;9.98;2.33;;;;;;;25.81;43.37;102186.34;4910801;28;114927;-64
2022/06/11 09:27:04;;;;;;;12.10;2.55;;;;;;;25.97;43.26;102185.00;4912555;28;114286;-64
2022/06/11 09:29:52;;;;;;;11.10;2.88;;;;;;;26.11;43.10;102192.78;4912263;28;124144;-64
2022/06/11 09:32:30;;;;;;;11.23;2.28;;;;;;;26.23;42.79;102197.09;4912872;28;123882;-64
2022/06/11 09:35:16;;;;;;;7.97;2.13;;;;;;;26.33;42.61;102191.69;4895326;28;113917;-64
2022/06/11 09:38:18;;;;;;;9.32;2.42;;;;;;;26.37;42.39;102197.69;4907849;28;114427;-65
2022/06/11 09:40:57;;;;;;;9.52;2.25;;;;;;;26.40;41.86;102192.00;4854311;28;124147;-66
2022/06/11 09:43:49;;;;;;;11.93;2.45;;;;;;;26.43;41.84;102197.16;4914097;28;124441;-66
2022/06/11 09:46:25;;;;;;;10.98;2.30;;;;;;;26.45;41.50;102200.59;4909021;28;114600;-66
2022/06/11 09:48:58;;;;;;;7.50;2.00;;;;;;;26.44;41.34;102198.88;4903245;28;114250;-66
2022/06/11 09:51:40;;;;;;;9.52;2.10;;;;;;;26.42;40.67;102190.00;4913039;28;124410;-66
2022/06/11 09:54:30;;;;;;;9.38;1.92;;;;;;;26.38;41.15;102189.41;4914334;28;124601;-66
2022/06/11 09:57:34;;;;;;;10.25;2.33;;;;;;;26.39;41.62;102195.69;4899715;28;114564;-64
2022/06/11 10:00:12;;;;;;;7.18;2.15;;;;;;;26.43;41.56;102197.16;4909712;28;114167;-64
2022/06/11 10:02:57;;;;;;;9.98;2.30;;;;;;;26.46;41.35;102202.28;4906287;28;124033;-64
2022/06/11 10:05:44;;;;;;;;;;;;;;;26.45;42.43;102200.59;4908587;28;124642;-64
2022/06/11 10:08:25;;;;;;;12.10;2.38;;;;;;;26.47;41.88;102198.59;4909065;28;114632;-64
2022/06/11 10:10:53;;;;;;;11.27;2.40;;;;;;;26.48;41.91;102205.72;4911553;28;115372;-64
2022/06/11 10:13:37;;;;;;;9.95;2.40;;;;;;;26.51;41.62;102205.47;4908194;28;124053;-65
2022/06/11 10:16:19;;;;;;;9.17;2.17;;;;;;;26.57;42.29;102204.88;4911671;28;124795;-65
2022/06/11 10:18:48;;;;;;;10.10;2.33;;;;;;;26.63;41.59;102208.94;4909327;28;114249;-65
2022/06/11 10:21:19;;;;;;;8.30;2.25;;;;;;;26.66;41.08;102196.94;4909536;28;114353;-64
2022/06/11 10:23:51;;;;;;;8.35;2.33;;;;;;;26.70;41.87;102203.81;4910991;28;123583;-64
2022/06/11 10:26:30;;;;;;;8.43;2.50;;;;;;;26.79;41.30;102202.94;4927683;28;122674;-64
2022/06/11 10:29:06;;;;;;;10.23;2.35;;;;;;;26.86;40.91;102209.53;4903290;28;113940;-64
2022/06/11 10:31:45;;;;;;;9.68;2.60;;;;;;;26.87;40.70;102197.66;4907190;28;113430;-64
2022/06/11 10:34:23;;;;;;;10.73;2.78;;;;;;;26.89;41.00;102201.06;4894325;28;124177;-66
2022/06/11 10:36:54;;;;;;;9.10;2.13;;;;;;;26.91;41.17;102193.63;4892391;28;123829;-66
2022/06/11 10:39:27;;;;;;;9.75;2.53;;;;;;;26.98;40.89;102197.50;4895197;28;113157;-66
2022/06/11 10:42:04;;;;;;;11.25;2.65;;;;;;;27.07;41.44;102195.78;4900244;28;114352;-66
2022/06/11 10:44:49;;;;;;;10.32;2.55;;;;;;;27.14;41.06;102207.81;4893956;28;124472;-66
2022/06/11 10:47:28;;;;;;;;;;;;;;;27.20;41.88;102211.81;4897716;28;123732;-66
2022/06/11 10:50:01;;;;;;;11.00;2.80;;;;;;;27.26;40.85;102200.38;4900983;28;114369;-66
2022/06/11 10:52:41;;;;;;;12.80;2.45;;;;;;;27.32;40.86;102199.78;4897438;28;114918;-66
2022/06/11 10:55:18;;;;;;;11.90;2.60;;;;;;;27.41;40.87;102191.72;4893709;28;124515;-65
2022/06/11 10:57:50;;;;;;;9.65;2.53;;;;;;;27.46;40.69;102194.88;4920657;28;123961;-64
2022/06/11 11:00:23;;;;;;;9.23;1.90;;;;;;;27.51;39.72;102200.75;4904526;28;115003;-64
2022/06/11 11:03:00;;;;;;;5.60;1.70;;;;;;;27.49;39.17;102194.59;4922269;28;114055;-65
2022/06/11 11:05:44;;;;;;;6.07;1.90;;;;;;;27.48;38.92;102192.88;4908992;28;123156;-65
2022/06/11 11:08:12;;;;;;;10.13;1.90;;;;;;;27.50;39.50;102196.28;4907820;28;123615;-64
2022/06/11 11:10:45;;;;;;;8.30;2.00;;;;;;;27.55;39.63;102194.00;4908585;28;114306;-64
2022/06/11 11:13:15;;;;;;;5.85;1.77;;;;;;;27.59;39.07;102195.41;4907952;28;114702;-65
2022/06/11 11:15:51;;;;;;;8.00;1.67;;;;;;;27.60;38.63;102190.84;4907892;28;124173;-64
2022/06/11 11:18:23;;;;;;;7.30;1.88;;;;;;;27.57;38.75;102192.84;4908323;28;123906;-66
2022/06/11 11:20:54;;;;;;;6.43;1.95;;;;;;;27.58;38.62;102193.72;4910921;28;114293;-65
2022/06/11 11:23:33;;;;;;;9.00;2.03;;;;;;;27.57;38.77;102186.53;4911866;28;114119;-66
2022/06/11 11:26:44;;;;;;;8.27;2.33;;;;;;;27.56;39.25;102187.56;4908656;28;124528;-66
2022/06/11 11:29:17;;;;;;;7.63;1.95;;;;;;;27.59;38.96;102189.97;4899965;28;124377;-66
2022/06/11 11:31:54;;;;;;;8.25;2.20;;;;;;;27.63;38.65;102191.38;4924524;28;113201;-66
2022/06/11 11:34:21;;;;;;;5.68;1.70;;;;;;;27.63;38.95;102185.94;4906648;28;114904;-66
2022/06/11 11:36:49;;;;;;;5.68;1.67;;;;;;;27.65;39.25;102192.13;4908121;28;124811;-64
2022/06/11 11:39:23;;;;;;;7.70;2.13;;;;;;;27.69;38.48;102188.09;4908484;28;123809;-64
2022/06/11 11:41:52;;;;;;;7.65;1.90;;;;;;;27.68;38.90;102189.09;4910114;28;113492;-66
2022/06/11 11:44:23;;;;;;;10.07;2.30;;;;;;;27.70;38.70;102180.78;4907812;28;113604;-65
2022/06/11 11:47:04;;;;;;;6.88;2.28;;;;;;;27.70;38.67;102187.06;4910005;28;123717;-66
2022/06/11 11:49:33;;;;;;;7.25;1.95;;;;;;;27.71;38.64;102183.34;4908225;28;124506;-66